Latest Weather Observations for Newdegate

IDW60801

Issued at 4:02 pm WST Tuesday 21 April 2015 (issued every 30 minutes, with the page automatically refreshed every 10 minutes)

About weather observations | Map of weather stations | Latest weather observations for WA | Other Formats
Station Details ID: 010692 Name: NEWDEGATE RESEARCH STATION Lat: -33.11 Lon: 118.84 Height: 320.0 m
Data from the previous 72 hours. | See also: Recent months at Newdegate
Date/Time
WST
Temp
°C
App
Temp
°C
Dew
Point
Rel
Hum
%
Delta-T
°C
Wind Press
QNH
hPa
Press
MSL
hPa
Rain
since 9 am
mm
Dir
 
Spd
km/h
Gust
km/h
Spd
kts
Gust
kts
21/04:00pm 24.5 22.4 1.4 22 11.0 NW 2 4 1 2 1020.7 1020.0 0.0
21/03:30pm 24.1 21.0 0.4 21 11.1 NW 6 9 3 5 1020.7 1020.0 0.0
21/03:00pm 23.9 20.8 1.5 23 10.6 SW 7 9 4 5 1021.0 1020.3 0.0
21/02:30pm 23.6 20.7 1.3 23 10.6 S 6 9 3 5 1021.0 1020.3 0.0
21/02:00pm 24.0 21.2 2.2 24 10.5 NE 6 13 3 7 1021.1 1020.4 0.0
21/01:30pm 24.0 21.0 2.2 24 10.5 NNW 7 15 4 8 1021.4 1020.7 0.0
21/01:00pm 23.4 20.1 2.3 25 10.1 NNW 9 20 5 11 1021.7 1021.0 0.0
21/12:30pm 22.7 19.7 1.7 25 10.0 NNW 7 13 4 7 1022.4 1021.6 0.0
21/12:00pm 22.4 19.2 3.0 28 9.4 NNW 9 13 5 7 1022.9 1022.1 0.0
21/11:30am 22.1 18.1 2.8 28 9.3 NNW 13 20 7 11 1023.4 1022.7 0.0
21/11:00am 21.3 17.3 3.0 30 8.8 NNW 13 17 7 9 1023.9 1023.2 0.0
21/10:30am 20.8 16.8 3.1 31 8.5 N 13 20 7 11 1024.3 1023.6 0.0
21/10:00am 19.3 14.3 3.5 35 7.5 N 19 24 10 13 1024.6 1023.9 0.0
21/09:30am 17.9 13.4 4.1 40 6.6 N 17 22 9 12 1025.0 1024.3 0.0
21/09:00am 15.8 11.9 5.4 50 5.0 N 15 19 8 10 1025.2 1024.5 0.0
21/08:00am 11.1 10.6 7.8 80 1.6 CALM 0 0 0 0 1025.4 1024.7 0.0
21/07:30am 7.9 7.1 6.4 90 0.7 CALM 0 0 0 0 1025.2 1024.5 0.0
21/07:00am 5.2 3.8 3.7 90 0.6 CALM 0 4 0 2 1024.8 1024.1 0.0
21/06:30am 2.9 1.1 1.0 87 0.7 CALM 0 0 0 0 1024.6 1023.9 0.0
21/06:00am 3.1 1.3 1.0 86 0.8 CALM 0 0 0 0 1024.6 1023.9 0.0
21/05:30am 3.8 1.7 1.7 86 0.8 SSE 2 4 1 2 1024.6 1023.9 0.0
21/05:00am 4.1 2.0 1.8 85 0.9 S 2 2 1 1 1024.6 1023.9 0.0
21/04:30am 3.9 2.1 1.1 82 1.1 CALM 0 0 0 0 1024.5 1023.8 0.0
21/04:00am 5.1 3.0 1.8 79 1.3 NE 2 2 1 1 1024.6 1023.9 0.0
21/03:30am 7.3 5.0 4.8 84 1.1 NE 6 6 3 3 1024.7 1024.0 0.0
21/03:00am 5.0 3.4 2.5 84 1.0 CALM 0 0 0 0 1024.9 1024.2 0.0
21/02:30am 5.6 4.2 3.3 85 1.0 CALM 0 0 0 0 1024.9 1024.2 0.0
21/02:00am 5.6 4.0 2.6 81 1.2 CALM 0 0 0 0 1024.9 1024.2 0.0
21/01:30am 5.4 3.7 2.1 79 1.3 CALM 0 0 0 0 1025.0 1024.3 0.0
21/01:00am 8.5 7.3 4.7 77 1.7 CALM 0 2 0 1 1025.3 1024.6 0.0
21/12:30am 8.3 7.0 4.3 76 1.8 CALM 0 0 0 0 1025.3 1024.6 0.0
21/12:00am 9.5 7.7 5.3 75 1.9 ENE 4 6 2 3 1025.4 1024.7 0.0
 
Date/Time
WST
Temp
°C
App
Temp
°C
Dew
Point
Rel
Hum
%
Delta-T
°C
Wind Press
QNH
hPa
Press
MSL
hPa
Rain
since 9 am
mm
Dir
 
Spd
km/h
Gust
km/h
Spd
kts
Gust
kts
20/11:30pm 8.7 6.8 4.9 77 1.7 E 4 7 2 4 1025.6 1024.8 0.0
20/11:00pm 8.6 7.4 4.8 77 1.7 CALM 0 0 0 0 1025.7 1025.0 0.0
20/10:30pm 8.5 7.2 3.9 73 2.0 CALM 0 0 0 0 1025.9 1025.2 0.0
20/10:00pm 10.9 9.0 5.0 67 2.7 E 4 6 2 3 1025.8 1025.1 0.0
20/09:30pm 11.6 10.2 5.5 66 2.9 NE 2 2 1 1 1025.9 1025.2 0.0
20/09:00pm 10.0 8.7 4.2 67 2.6 CALM 0 2 0 1 1025.8 1025.1 0.0
20/08:30pm 12.1 10.2 4.8 61 3.4 ENE 4 6 2 3 1025.7 1025.0 0.0
20/08:00pm 10.8 9.6 4.7 66 2.8 CALM 0 6 0 3 1025.6 1024.8 0.0
20/07:30pm 11.4 10.3 5.1 65 2.9 CALM 0 0 0 0 1025.4 1024.7 0.0
20/07:00pm 13.5 12.3 4.6 55 4.1 CALM 0 0 0 0 1025.4 1024.7 0.0
20/06:30pm 12.5 10.9 4.5 58 3.7 ESE 2 2 1 1 1025.2 1024.5 0.0
20/06:00pm 16.2 14.2 4.6 46 5.5 E 4 6 2 3 1025.1 1024.4 0.0
20/05:30pm 19.1 16.4 3.7 36 7.4 ENE 7 9 4 5 1024.9 1024.2 0.0
20/05:00pm 21.5 17.7 3.7 31 8.7 ENE 13 17 7 9 1024.7 1024.0 0.0
20/04:30pm 22.8 19.0 3.9 29 9.4 NE 13 20 7 11 1024.8 1024.1 0.0
20/04:00pm 23.3 19.4 3.3 27 9.8 NE 13 24 7 13 1024.9 1024.2 0.0
20/03:30pm 23.6 20.2 4.0 28 9.8 NNE 11 19 6 10 1025.1 1024.4 0.0
20/03:00pm 23.7 21.0 3.6 27 9.9 NNE 7 13 4 7 1025.2 1024.5 0.0
20/02:30pm 23.7 20.7 4.1 28 9.8 ENE 9 19 5 10 1025.4 1024.7 0.0
20/02:00pm 23.6 19.3 3.5 27 9.9 NNE 15 22 8 12 1025.6 1024.8 0.0
20/01:30pm 23.5 19.0 4.0 28 9.7 NNE 17 28 9 15 1025.8 1025.1 0.0
20/01:00pm 23.2 19.6 5.2 31 9.1 NNE 13 20 7 11 1026.2 1025.5 0.0
20/12:30pm 22.1 18.7 5.9 35 8.3 NNE 13 22 7 12 1026.7 1026.0 0.0
20/12:00pm 21.4 17.3 6.1 37 7.8 NNE 17 26 9 14 1027.4 1026.7 0.0
20/11:30am 21.5 17.2 7.0 39 7.5 NNE 19 26 10 14 1028.2 1027.5 0.0
20/11:00am 20.5 16.3 7.5 43 6.7 N 19 30 10 16 1028.5 1027.9 0.0
20/10:30am 19.4 14.1 6.8 44 6.4 NNE 24 32 13 17 1028.9 1028.2 0.0
20/10:00am 18.6 13.1 7.4 48 5.7 NNE 26 35 14 19 1029.1 1028.4 0.0
20/09:30am 17.9 12.9 8.2 53 5.0 NNE 24 33 13 18 1029.2 1028.5 0.0
20/09:00am 16.3 12.1 8.3 59 4.1 NE 20 28 11 15 1029.5 1028.8 0.0
20/08:30am 13.9 10.2 8.1 68 2.9 NE 17 22 9 12 1029.7 1029.0 0.0
20/08:00am 12.3 10.2 8.4 77 1.9 NE 9 15 5 8 1029.9 1029.2 0.0
20/07:30am 10.3 9.2 8.4 88 0.9 ENE 4 6 2 3 1029.7 1029.0 0.0
20/07:00am 7.1 6.0 5.3 88 0.8 CALM 0 0 0 0 1029.5 1028.8 0.0
20/06:30am 6.1 4.8 3.9 86 1.0 CALM 0 0 0 0 1029.2 1028.5 0.0
20/06:00am 7.1 5.6 4.9 86 1.0 E 2 2 1 1 1028.9 1028.2 0.0
20/05:30am 7.8 6.1 5.8 87 0.9 ENE 4 6 2 3 1028.7 1028.1 0.0
20/05:00am 7.5 5.3 5.5 87 0.9 NE 6 7 3 4 1028.5 1027.9 0.0
20/04:30am 7.4 5.5 5.0 85 1.1 NE 4 6 2 3 1028.6 1028.0 0.0
20/04:00am 7.3 4.8 4.8 84 1.1 NNE 7 9 4 5 1028.5 1027.9 0.0
20/03:30am 7.9 6.9 5.5 85 1.1 CALM 0 0 0 0 1028.5 1027.9 0.0
20/03:00am 8.5 7.2 6.0 84 1.2 ENE 2 2 1 1 1028.6 1028.0 0.0
20/02:30am 8.5 6.8 6.0 84 1.2 ENE 4 4 2 2 1028.9 1028.2 0.0
20/02:00am 8.0 5.8 5.3 83 1.2 ENE 6 6 3 3 1029.1 1028.4 0.0
20/01:30am 9.0 7.5 6.6 85 1.1 E 4 6 2 3 1029.1 1028.4 0.0
20/01:00am 8.3 7.3 5.8 84 1.1 CALM 0 0 0 0 1029.1 1028.4 0.0
20/12:30am 8.5 7.5 5.4 81 1.4 CALM 0 2 0 1 1029.0 1028.3 0.0
20/12:00am 10.5 9.1 7.2 80 1.6 ENE 4 4 2 2 1029.0 1028.3 0.0
 
Date/Time
WST
Temp
°C
App
Temp
°C
Dew
Point
Rel
Hum
%
Delta-T
°C
Wind Press
QNH
hPa
Press
MSL
hPa
Rain
since 9 am
mm
Dir
 
Spd
km/h
Gust
km/h
Spd
kts
Gust
kts
19/11:30pm 10.3 8.6 7.5 83 1.4 ESE 6 7 3 4 1029.0 1028.3 0.0
19/11:00pm 10.0 9.2 6.5 79 1.7 CALM 0 0 0 0 1029.2 1028.5 0.0
19/10:30pm 11.5 10.0 8.5 82 1.5 E 6 6 3 3 1029.3 1028.6 0.0
19/10:00pm 10.4 9.8 7.3 81 1.5 CALM 0 0 0 0 1029.3 1028.6 0.0
19/09:30pm 10.5 9.9 7.6 82 1.4 CALM 0 0 0 0 1029.1 1028.4 0.0
19/09:00pm 11.5 11.0 7.8 78 1.8 CALM 0 0 0 0 1029.1 1028.4 0.0
19/08:30pm 13.9 13.2 8.5 70 2.8 NNE 2 2 1 1 1029.0 1028.3 0.0
19/08:00pm 13.7 12.2 8.3 70 2.7 ENE 6 6 3 3 1028.7 1028.1 0.0
19/07:30pm 13.4 12.3 8.5 72 2.5 E 4 4 2 2 1028.6 1028.0 0.0
19/07:00pm 15.3 13.9 8.8 65 3.3 E 6 7 3 4 1028.4 1027.8 0.0
19/06:30pm 16.6 15.0 8.6 59 4.2 E 7 9 4 5 1027.8 1027.1 0.0
19/06:00pm 18.3 15.9 8.6 53 5.1 E 11 15 6 8 1027.5 1026.8 0.0
19/05:30pm 20.4 17.6 8.7 47 6.2 ENE 13 17 7 9 1027.3 1026.6 0.0
19/05:00pm 21.8 18.4 9.0 44 6.9 ENE 17 24 9 13 1027.0 1026.3 0.0
19/04:30pm 22.6 19.5 9.0 42 7.4 ENE 15 22 8 12 1027.1 1026.4 0.0
19/04:00pm 22.9 19.4 8.6 40 7.7 ENE 17 24 9 13 1027.1 1026.4 0.0
19/03:30pm 23.3 19.8 8.6 39 8.0 ENE 17 28 9 15 1027.2 1026.5 0.0
19/03:00pm 23.5 20.0 8.8 39 7.9 ENE 17 26 9 14 1027.1 1026.4 0.0
19/02:30pm 23.9 21.1 8.7 38 8.3 ENE 13 20 7 11 1027.1 1026.4 0.0
19/02:00pm 23.6 20.7 9.6 41 7.7 ENE 15 24 8 13 1027.2 1026.5 0.0
19/01:30pm 23.5 20.1 9.1 40 7.9 NNE 17 24 9 13 1027.4 1026.7 0.0
19/01:00pm 23.2 20.5 10.3 44 7.1 NE 15 24 8 13 1027.8 1027.1 0.0
19/12:30pm 22.3 18.9 10.5 47 6.6 NE 19 24 10 13 1028.2 1027.5 0.0
19/12:00pm 22.1 19.4 10.3 47 6.5 NE 15 24 8 13 1028.6 1028.0 0.0
19/11:30am 21.5 18.1 10.6 50 6.1 NNE 19 24 10 13 1029.2 1028.5 0.0
19/11:00am 20.0 16.8 10.1 53 5.4 NE 17 32 9 17 1029.5 1028.8 0.0
19/10:30am 19.7 16.4 10.9 57 4.9 NE 19 28 10 15 1029.9 1029.2 0.0
19/10:00am 18.8 15.3 10.9 60 4.3 NNE 20 26 11 14 1030.1 1029.4 0.0
19/09:30am 17.7 14.2 11.0 65 3.7 NE 20 28 11 15 1030.2 1029.5 0.0
19/09:00am 16.7 12.4 10.8 68 3.2 NE 24 32 13 17 1030.3 1029.6 0.0
19/08:30am 16.0 11.8 11.0 72 2.7 NE 24 32 13 17 1030.3 1029.6 0.0
19/08:00am 14.6 12.0 10.8 78 2.0 NE 15 24 8 13 1030.0 1029.3 0.0
19/07:30am 13.1 11.6 10.5 84 1.4 ENE 9 13 5 7 1029.7 1029.0 0.0
19/07:00am 11.5 10.1 9.4 87 1.1 ENE 7 9 4 5 1029.3 1028.6 0.0
19/06:30am 11.0 9.0 8.8 86 1.1 ENE 9 11 5 6 1028.9 1028.2 0.0
19/06:00am 11.5 9.2 9.1 85 1.2 ENE 11 15 6 8 1028.5 1027.9 0.0
19/05:30am 11.8 9.2 9.2 84 1.3 E 13 17 7 9 1028.3 1027.7 0.0
19/05:00am 11.7 9.0 9.1 84 1.3 E 13 19 7 10 1028.1 1027.4 0.0
19/04:30am 11.1 8.7 8.5 84 1.3 E 11 15 6 8 1028.0 1027.3 0.0
19/04:00am 11.2 8.4 8.4 83 1.4 E 13 19 7 10 1027.7 1027.0 0.0
19/03:30am 11.4 8.6 8.6 83 1.4 E 13 17 7 9 1027.6 1026.9 0.0
19/03:00am 11.5 8.4 8.7 83 1.4 E 15 22 8 12 1027.7 1027.0 0.0
19/02:30am 11.5 8.4 8.9 84 1.3 E 15 20 8 11 1027.7 1027.0 0.0
19/02:00am 11.5 8.8 8.9 84 1.3 E 13 19 7 10 1027.8 1027.1 0.0
19/01:30am 11.9 8.9 9.3 84 1.3 E 15 24 8 13 1027.9 1027.2 0.0
19/01:00am 12.2 9.7 9.6 84 1.3 E 13 15 7 8 1027.9 1027.2 0.0
19/12:30am 13.0 10.1 9.8 81 1.7 E 15 20 8 11 1027.9 1027.2 0.0
19/12:00am 13.8 9.7 10.2 79 1.9 ENE 22 32 12 17 1027.9 1027.2 0.0
 
Date/Time
WST
Temp
°C
App
Temp
°C
Dew
Point
Rel
Hum
%
Delta-T
°C
Wind Press
QNH
hPa
Press
MSL
hPa
Rain
since 9 am
mm
Dir
 
Spd
km/h
Gust
km/h
Spd
kts
Gust
kts
18/11:30pm 13.9 9.8 10.1 78 2.0 ENE 22 32 12 17 1028.0 1027.3 0.0
18/11:00pm 13.9 9.4 10.1 78 2.0 E 24 32 13 17 1028.0 1027.3 0.0
18/10:30pm 14.0 9.9 10.2 78 2.0 E 22 32 12 17 1028.2 1027.5 0.0
18/10:00pm 14.0 9.5 10.2 78 2.0 E 24 33 13 18 1028.1 1027.4 0.0
18/09:30pm 14.2 9.7 10.2 77 2.1 E 24 33 13 18 1028.1 1027.4 0.0
18/09:00pm 14.3 10.3 10.3 77 2.1 E 22 32 12 17 1028.0 1027.3 0.0
18/08:30pm 14.4 10.1 10.6 78 2.0 ESE 24 33 13 18 1027.8 1027.1 0.0
18/08:00pm 14.4 10.9 10.8 79 1.9 ESE 20 28 11 15 1027.7 1027.0 0.0
18/07:30pm 14.5 11.1 11.1 80 1.8 ESE 20 32 11 17 1027.4 1026.7 0.0
18/07:00pm 14.6 11.2 11.2 80 1.8 ESE 20 30 11 16 1027.3 1026.6 0.0
18/06:30pm 14.8 11.1 11.6 81 1.7 ESE 22 32 12 17 1026.9 1026.2 0.0
18/06:00pm 15.2 12.0 12.0 81 1.8 ESE 20 30 11 16 1026.5 1025.8 0.0
18/05:30pm 15.4 12.2 11.8 79 2.0 ESE 20 30 11 16 1026.1 1025.4 0.0
18/05:00pm 16.0 12.1 12.0 77 2.2 ESE 24 32 13 17 1025.9 1025.2 0.0
18/04:30pm 16.7 12.0 12.0 74 2.6 ESE 28 35 15 19 1025.7 1025.0 0.0

Other Formats:

Comma delimited format used in spreadsheet applications
http://www.bom.gov.au/fwo/IDW60801/IDW60801.94628.axf

JavaScript Object Notation format (JSON) in row-major order
http://www.bom.gov.au/fwo/IDW60801/IDW60801.94628.json